createdAt,value
2019-05-11T00:00:35.804Z,1.80
2019-05-11T00:01:39.632Z,2.30
2019-05-11T00:02:47.645Z,2.27
2019-05-11T00:03:52.579Z,2.00
2019-05-11T00:05:07.807Z,1.90
2019-05-11T00:07:51.844Z,1.83
2019-05-11T00:08:58.040Z,1.77
2019-05-11T00:10:03.416Z,1.90
2019-05-11T00:11:07.387Z,1.90
2019-05-11T00:12:11.699Z,1.97
2019-05-11T00:13:15.595Z,1.60
2019-05-11T00:14:19.316Z,1.73
2019-05-11T00:15:23.317Z,1.83
2019-05-11T00:16:27.516Z,1.40
2019-05-11T00:17:31.342Z,1.70
2019-05-11T00:18:37.775Z,1.67
2019-05-11T00:19:43.104Z,1.70
2019-05-11T00:20:46.898Z,1.83
2019-05-11T00:21:50.798Z,1.77
2019-05-11T00:22:54.491Z,1.60
2019-05-11T00:23:58.401Z,1.43
2019-05-11T00:25:03.217Z,1.67
2019-05-11T00:26:07.050Z,1.67
2019-05-11T00:27:10.797Z,1.60
2019-05-11T00:28:15.940Z,1.60
2019-05-11T00:29:22.177Z,1.77
2019-05-11T00:30:26.443Z,1.73
2019-05-11T00:31:34.222Z,1.73
2019-05-11T00:32:38.050Z,1.73
2019-05-11T00:33:48.257Z,1.67
2019-05-11T00:36:22.540Z,1.80
2019-05-11T00:37:30.668Z,2.00
2019-05-11T00:40:14.737Z,1.63
2019-05-11T00:41:31.223Z,1.67
2019-05-11T00:44:29.325Z,1.50
2019-05-11T00:45:46.118Z,1.60
2019-05-11T00:46:55.740Z,1.80
2019-05-11T00:48:11.604Z,2.90
2019-05-11T00:49:22.293Z,3.60
2019-05-11T00:50:40.140Z,3.67
2019-05-11T00:51:58.811Z,6.53
2019-05-11T00:53:01.488Z,7.67
2019-05-11T00:54:15.263Z,8.20
2019-05-11T00:55:25.234Z,7.90
2019-05-11T00:56:41.160Z,6.80
2019-05-11T00:57:53.603Z,6.90
2019-05-11T01:00:41.342Z,4.83
2019-05-11T01:03:26.411Z,5.60
2019-05-11T01:05:13.350Z,6.33
2019-05-11T01:06:48.011Z,8.23
2019-05-11T01:07:53.035Z,6.70
2019-05-11T01:11:07.945Z,9.43
2019-05-11T01:12:33.185Z,10.87
2019-05-11T01:24:44.772Z,10.37
2019-05-11T01:25:56.717Z,11.50
2019-05-11T01:27:05.767Z,11.90
2019-05-11T01:28:20.338Z,12.30
2019-05-11T01:29:54.653Z,12.37
2019-05-11T01:34:38.906Z,10.40
2019-05-11T01:35:43.204Z,10.63
2019-05-11T01:36:48.292Z,8.33
2019-05-11T01:37:55.069Z,8.20
2019-05-11T01:38:59.199Z,7.00
2019-05-11T01:40:06.923Z,6.70
2019-05-11T01:41:10.580Z,6.87
2019-05-11T01:42:14.523Z,6.73
2019-05-11T01:43:18.656Z,6.73
2019-05-11T01:44:22.991Z,6.00
2019-05-11T01:45:26.707Z,6.20
2019-05-11T01:46:30.579Z,5.60
2019-05-11T01:47:34.273Z,5.40
2019-05-11T01:48:38.105Z,5.53
2019-05-11T01:49:42.101Z,5.37
2019-05-11T01:50:45.932Z,4.80
2019-05-11T01:51:49.659Z,4.80
2019-05-11T01:52:53.562Z,5.23
2019-05-11T01:53:58.790Z,4.27
2019-05-11T01:55:02.622Z,4.43
2019-05-11T01:56:09.042Z,4.40
2019-05-11T01:57:12.938Z,4.50
2019-05-11T01:58:18.187Z,4.40
2019-05-11T01:59:21.995Z,4.50
2019-05-11T02:02:11.262Z,4.00
2019-05-11T02:03:14.311Z,3.83
2019-05-11T02:04:20.538Z,5.00
2019-05-11T02:05:30.321Z,3.87
2019-05-11T02:06:34.301Z,3.83
2019-05-11T02:07:39.119Z,3.77
2019-05-11T02:08:42.957Z,3.70
2019-05-11T02:09:46.676Z,3.87
2019-05-11T02:10:50.617Z,4.43
2019-05-11T02:11:54.371Z,3.77
2019-05-11T02:12:58.305Z,3.80
2019-05-11T02:14:05.067Z,4.00
2019-05-11T02:15:09.284Z,3.83
2019-05-11T02:16:18.057Z,3.67
2019-05-11T02:17:22.392Z,3.50
2019-05-11T02:18:26.490Z,4.33
2019-05-11T02:19:30.764Z,4.40
2019-05-11T02:20:34.495Z,4.00
2019-05-11T02:21:38.806Z,4.50
2019-05-11T02:22:45.102Z,5.50
2019-05-11T02:23:49.059Z,4.97
2019-05-11T02:24:52.752Z,4.73
2019-05-11T02:25:56.880Z,4.90
2019-05-11T02:27:00.610Z,6.23
2019-05-11T02:28:06.063Z,6.43
2019-05-11T02:29:09.755Z,7.37
2019-05-11T02:30:15.435Z,6.40
2019-05-11T02:31:19.548Z,6.53
2019-05-11T02:32:23.374Z,6.73
2019-05-11T02:33:27.526Z,7.20
2019-05-11T02:34:33.305Z,7.07
2019-05-11T02:35:37.056Z,7.53
2019-05-11T02:36:41.264Z,7.40
2019-05-11T02:37:44.960Z,7.63
2019-05-11T02:38:48.858Z,8.07
2019-05-11T02:39:55.537Z,8.73
2019-05-11T02:40:59.658Z,9.70
2019-05-11T02:42:03.416Z,9.90
2019-05-11T02:43:07.516Z,9.50
2019-05-11T02:44:11.225Z,9.93
2019-05-11T02:45:17.749Z,9.73
2019-05-11T02:46:21.392Z,9.90
2019-05-11T02:47:25.339Z,10.23
2019-05-11T02:48:29.058Z,10.00
2019-05-11T02:49:32.955Z,10.73
2019-05-11T02:50:38.998Z,10.47
2019-05-11T02:51:43.705Z,10.30
2019-05-11T02:52:50.593Z,9.83
2019-05-11T02:53:55.290Z,9.97
2019-05-11T02:55:02.172Z,9.27
2019-05-11T02:56:06.051Z,9.27
2019-05-11T02:57:10.998Z,8.03
2019-05-11T02:58:15.299Z,7.97
2019-05-11T02:59:19.005Z,7.33
2019-05-11T03:00:25.746Z,6.73
2019-05-11T03:01:29.434Z,6.40
2019-05-11T03:02:33.247Z,6.07
2019-05-11T03:03:36.934Z,5.07
2019-05-11T03:04:40.834Z,5.23
2019-05-11T03:05:44.733Z,5.43
2019-05-11T03:06:48.632Z,5.53
2019-05-11T03:07:52.325Z,6.20
2019-05-11T03:08:56.641Z,5.70
2019-05-11T03:10:01.656Z,5.63
2019-05-11T03:11:05.505Z,5.03
2019-05-11T03:12:09.157Z,4.87
2019-05-11T03:13:13.316Z,4.97
2019-05-11T03:14:17.148Z,4.67
2019-05-11T03:15:21.047Z,4.37
2019-05-11T03:16:27.203Z,5.00
2019-05-11T03:17:32.904Z,5.37
2019-05-11T03:18:36.903Z,6.50
2019-05-11T03:19:42.500Z,5.27
2019-05-11T03:20:46.138Z,5.03
2019-05-11T03:21:51.266Z,5.47
2019-05-11T03:22:55.911Z,4.83
2019-05-11T03:23:59.785Z,4.67
2019-05-11T03:25:03.437Z,4.63
2019-05-11T03:26:11.520Z,4.43
2019-05-11T03:27:15.188Z,4.20
2019-05-11T03:28:19.068Z,4.20
2019-05-11T03:29:24.518Z,4.27
2019-05-11T03:30:28.766Z,4.37
2019-05-11T03:31:32.421Z,5.30
2019-05-11T03:32:36.348Z,4.40
2019-05-11T03:33:41.504Z,4.50
2019-05-11T03:34:45.361Z,4.57
2019-05-11T03:35:49.034Z,4.40
2019-05-11T03:36:52.865Z,5.13
2019-05-11T03:38:00.204Z,4.23
2019-05-11T03:39:05.232Z,4.13
2019-05-11T03:40:10.067Z,4.83
2019-05-11T03:41:13.968Z,4.80
2019-05-11T03:42:21.387Z,4.50
2019-05-11T03:43:27.872Z,4.70
2019-05-11T03:44:31.785Z,5.40
2019-05-11T03:45:35.691Z,4.63
2019-05-11T03:46:39.408Z,4.87
2019-05-11T03:47:43.313Z,4.90
2019-05-11T03:48:47.044Z,5.53
2019-05-11T03:49:50.970Z,5.00
2019-05-11T03:50:54.683Z,4.60
2019-05-11T03:51:58.563Z,4.90
2019-05-11T03:53:02.264Z,4.80
2019-05-11T03:54:06.252Z,5.80
2019-05-11T03:55:10.212Z,5.10
2019-05-11T03:56:14.124Z,4.67
2019-05-11T03:57:17.885Z,4.87
2019-05-11T03:58:25.772Z,4.70
2019-05-11T03:59:27.279Z,4.50
2019-05-11T04:00:31.218Z,4.63
2019-05-11T04:01:34.966Z,4.50
2019-05-11T04:02:38.874Z,4.37
2019-05-11T04:03:42.508Z,4.80
2019-05-11T04:04:46.343Z,5.33
2019-05-11T04:05:50.065Z,6.17
2019-05-11T04:06:53.925Z,6.23
2019-05-11T04:08:00.637Z,6.40
2019-05-11T04:09:06.231Z,6.70
2019-05-11T04:10:12.062Z,6.33
2019-05-11T04:11:15.893Z,6.37
2019-05-11T04:12:34.120Z,6.00
2019-05-11T04:13:25.226Z,5.90
2019-05-11T04:14:28.952Z,6.63
2019-05-11T04:15:38.980Z,6.17
2019-05-11T04:16:42.980Z,6.30
2019-05-11T04:17:48.324Z,6.80
2019-05-11T04:18:52.356Z,6.10
2019-05-11T04:19:56.520Z,6.37
2019-05-11T04:21:01.925Z,6.10
2019-05-11T04:22:06.423Z,6.23
2019-05-11T04:23:10.366Z,6.77
2019-05-11T04:24:16.046Z,7.03
2019-05-11T04:25:21.323Z,6.27
2019-05-11T04:26:25.110Z,5.90
2019-05-11T04:27:29.283Z,6.80
2019-05-11T04:28:34.479Z,7.20
2019-05-11T04:29:57.049Z,8.23
2019-05-11T04:31:00.904Z,6.97
2019-05-11T04:32:07.841Z,6.80
2019-05-11T04:33:11.755Z,6.50
2019-05-11T04:34:15.434Z,6.43
2019-05-11T04:35:19.247Z,6.67
2019-05-11T04:36:23.337Z,7.10
2019-05-11T04:37:27.177Z,8.63
2019-05-11T04:38:30.867Z,10.00
2019-05-11T04:39:34.764Z,8.50
2019-05-11T04:40:38.512Z,6.53
2019-05-11T04:41:42.887Z,6.90
2019-05-11T04:42:55.035Z,7.07
2019-05-11T04:43:53.734Z,7.20
2019-05-11T04:44:57.381Z,6.47
2019-05-11T04:46:01.202Z,6.37
2019-05-11T04:47:04.882Z,6.33
2019-05-11T04:48:08.681Z,5.73
2019-05-11T04:49:12.313Z,6.50
2019-05-11T04:50:16.238Z,5.67
2019-05-11T04:51:19.950Z,6.00
2019-05-11T04:52:23.797Z,6.30
2019-05-11T04:53:27.423Z,6.27
2019-05-11T04:54:31.251Z,6.33
2019-05-11T04:55:35.250Z,6.53
2019-05-11T04:56:39.142Z,6.60
2019-05-11T04:57:42.843Z,5.73
2019-05-11T04:58:46.638Z,5.90
2019-05-11T04:59:50.318Z,6.27
2019-05-11T05:00:54.126Z,5.83
2019-05-11T05:01:57.767Z,5.70
2019-05-11T05:03:01.702Z,6.17
2019-05-11T05:04:13.977Z,7.37
2019-05-11T05:05:10.901Z,7.17
2019-05-11T05:06:24.121Z,7.63
2019-05-11T05:07:20.484Z,8.77
2019-05-11T05:08:26.609Z,7.37
2019-05-11T05:09:36.171Z,6.63
2019-05-11T05:10:37.642Z,6.97
2019-05-11T05:11:41.813Z,7.33
2019-05-11T05:12:50.379Z,7.27
2019-05-11T05:13:53.517Z,7.43
2019-05-11T05:14:56.462Z,6.57
2019-05-11T05:16:00.287Z,6.73
2019-05-11T05:17:04.055Z,6.60
2019-05-11T05:18:07.898Z,7.13
2019-05-11T05:19:11.553Z,7.03
2019-05-11T05:20:16.076Z,7.03
2019-05-11T05:21:19.710Z,6.63
2019-05-11T05:22:23.546Z,7.50
2019-05-11T05:23:27.185Z,8.33
2019-05-11T05:24:31.132Z,6.43
2019-05-11T05:25:34.761Z,7.07
2019-05-11T05:26:38.706Z,7.67
2019-05-11T05:27:42.390Z,6.93
2019-05-11T05:28:46.311Z,7.17
2019-05-11T05:29:49.955Z,7.27
2019-05-11T05:30:53.757Z,6.57
2019-05-11T05:31:57.306Z,7.37
2019-05-11T05:33:01.596Z,6.37
2019-05-11T05:34:05.329Z,7.20
2019-05-11T05:35:09.953Z,6.70
2019-05-11T05:36:13.594Z,6.50
2019-05-11T05:37:17.417Z,6.87
2019-05-11T05:38:21.115Z,6.67
2019-05-11T05:39:24.929Z,8.53
2019-05-11T05:40:28.877Z,6.17
2019-05-11T05:41:32.709Z,6.77
2019-05-11T05:42:36.424Z,6.70
2019-05-11T05:43:40.263Z,6.47
2019-05-11T05:44:43.898Z,6.17
2019-05-11T05:45:47.817Z,6.27
2019-05-11T05:46:51.475Z,6.13
2019-05-11T05:47:55.313Z,6.27
2019-05-11T05:48:59.006Z,5.43
2019-05-11T05:50:02.977Z,5.43
2019-05-11T05:51:06.634Z,5.20
2019-05-11T05:52:10.695Z,5.23
2019-05-11T05:53:14.536Z,5.43
2019-05-11T05:54:18.387Z,5.93
2019-05-11T05:55:22.021Z,5.40
2019-05-11T05:56:25.887Z,5.67
2019-05-11T05:57:29.559Z,5.53
2019-05-11T05:58:34.877Z,5.00
2019-05-11T05:59:38.644Z,5.13
2019-05-11T06:00:42.538Z,5.27
2019-05-11T06:01:46.177Z,5.47
2019-05-11T06:02:49.994Z,6.60
2019-05-11T06:03:53.938Z,5.23
2019-05-11T06:04:58.234Z,9.03
2019-05-11T06:06:01.928Z,5.90
2019-05-11T06:07:05.792Z,7.00
2019-05-11T06:08:09.517Z,5.83
2019-05-11T06:09:13.351Z,5.97
2019-05-11T06:10:17.454Z,13.97
2019-05-11T06:11:21.349Z,10.80
2019-05-11T06:12:25.103Z,4.80
2019-05-11T06:13:43.950Z,3.60
2019-05-11T06:14:34.784Z,4.43
2019-05-11T06:15:38.600Z,3.93
2019-05-11T06:16:42.242Z,4.00
2019-05-11T06:17:46.137Z,3.30
2019-05-11T06:18:49.830Z,3.33
2019-05-11T06:19:53.636Z,3.47
2019-05-11T06:20:57.698Z,3.07
2019-05-11T06:22:01.545Z,2.77
2019-05-11T06:23:05.177Z,2.73
2019-05-11T06:24:09.179Z,3.33
2019-05-11T06:25:13.127Z,4.07
2019-05-11T06:26:17.310Z,3.40
2019-05-11T06:27:20.872Z,3.47
2019-05-11T06:28:24.829Z,3.40
2019-05-11T06:29:28.457Z,3.60
2019-05-11T06:30:32.309Z,4.03
2019-05-11T06:31:35.978Z,3.83
2019-05-11T06:32:39.794Z,3.10
2019-05-11T06:33:43.836Z,2.97
2019-05-11T06:34:47.669Z,2.90
2019-05-11T06:35:51.323Z,3.37
2019-05-11T06:36:55.061Z,2.57
2019-05-11T06:37:58.708Z,2.80
2019-05-11T06:39:02.550Z,3.13
2019-05-11T06:40:07.993Z,2.03
2019-05-11T06:41:12.300Z,3.20
2019-05-11T06:42:15.942Z,2.83
2019-05-11T06:43:19.801Z,2.70
2019-05-11T06:44:23.467Z,2.10
2019-05-11T06:45:27.286Z,2.90
2019-05-11T06:46:34.694Z,2.43
2019-05-11T06:47:36.619Z,2.50
2019-05-11T06:48:40.257Z,3.13
2019-05-11T06:49:44.134Z,2.80
2019-05-11T06:50:47.792Z,2.90
2019-05-11T06:51:51.610Z,2.47
2019-05-11T06:52:55.240Z,2.70
2019-05-11T06:53:59.070Z,3.07
2019-05-11T06:55:02.738Z,2.67
2019-05-11T06:56:09.152Z,2.70
2019-05-11T06:57:12.413Z,2.77
2019-05-11T06:58:16.230Z,2.40
2019-05-11T06:59:19.858Z,2.73
2019-05-11T07:00:23.797Z,2.57
2019-05-11T07:01:27.489Z,2.57
2019-05-11T07:02:31.607Z,2.70
2019-05-11T07:03:35.268Z,2.40
2019-05-11T07:04:39.144Z,2.53
2019-05-11T07:05:42.812Z,1.90
2019-05-11T07:06:47.081Z,2.70
2019-05-11T07:07:50.772Z,2.03
2019-05-11T07:08:54.614Z,2.20
2019-05-11T07:09:58.254Z,2.40
2019-05-11T07:11:02.145Z,2.50
2019-05-11T07:12:05.845Z,2.80
2019-05-11T07:13:10.235Z,3.20
2019-05-11T07:14:20.509Z,2.10
2019-05-11T07:15:19.494Z,2.43
2019-05-11T07:16:23.315Z,2.00
2019-05-11T07:17:27.131Z,2.20
2019-05-11T07:18:31.098Z,2.17
2019-05-11T07:19:34.985Z,2.37
2019-05-11T07:20:50.181Z,2.70
2019-05-11T07:21:45.685Z,2.70
2019-05-11T07:22:49.328Z,2.77
2019-05-11T07:23:53.071Z,2.70
2019-05-11T07:24:57.148Z,2.53
2019-05-11T07:26:00.904Z,2.90
2019-05-11T07:27:04.674Z,2.53
2019-05-11T07:28:08.512Z,2.53
2019-05-11T07:29:12.221Z,2.17
2019-05-11T07:30:16.172Z,2.97
2019-05-11T07:31:19.812Z,2.17
2019-05-11T07:32:26.074Z,2.10
2019-05-11T07:33:29.140Z,2.17
2019-05-11T07:34:32.956Z,1.90
2019-05-11T07:35:38.515Z,1.93
2019-05-11T07:36:42.168Z,2.30
2019-05-11T07:37:47.888Z,1.80
2019-05-11T07:38:51.404Z,2.30
2019-05-11T07:39:55.051Z,2.27
2019-05-11T07:40:58.865Z,2.60
2019-05-11T07:42:02.490Z,2.30
2019-05-11T07:43:09.655Z,2.30
2019-05-11T07:44:11.853Z,2.40
2019-05-11T07:45:18.067Z,1.80
2019-05-11T07:46:21.548Z,1.60
2019-05-11T07:47:27.725Z,1.97
2019-05-11T07:48:31.087Z,1.90
2019-05-11T07:49:34.981Z,1.93
2019-05-11T07:50:38.877Z,1.90
2019-05-11T07:51:42.877Z,1.60
2019-05-11T07:52:48.293Z,2.77
2019-05-11T07:53:52.374Z,1.90
2019-05-11T07:54:58.027Z,2.37
2019-05-11T07:56:01.642Z,2.23
2019-05-11T07:57:07.755Z,1.90
2019-05-11T07:58:10.950Z,1.70
2019-05-11T07:59:14.672Z,1.80
2019-05-11T08:00:18.840Z,1.70
2019-05-11T08:01:22.448Z,2.00
2019-05-11T08:02:29.273Z,1.87
2019-05-11T08:03:31.694Z,1.57
2019-05-11T08:04:37.879Z,1.80
2019-05-11T08:05:41.663Z,1.90
2019-05-11T08:06:47.762Z,1.72
2019-05-11T08:07:50.854Z,1.60
2019-05-11T08:08:58.593Z,3.07
2019-05-11T08:10:02.483Z,1.10
2019-05-11T08:11:08.204Z,1.17
2019-05-11T08:12:11.995Z,0.90
2019-05-11T08:13:17.836Z,0.80
2019-05-11T08:14:21.672Z,1.10
2019-05-11T08:15:28.358Z,0.85
2019-05-11T08:16:32.322Z,0.98
2019-05-11T08:17:38.119Z,1.02
2019-05-11T08:18:41.564Z,0.98
2019-05-11T08:19:47.535Z,1.17
2019-05-11T08:20:50.845Z,0.90
2019-05-11T08:21:54.685Z,0.85
2019-05-11T08:22:58.818Z,0.98
2019-05-11T08:24:02.732Z,1.20
2019-05-11T08:25:09.746Z,0.90
2019-05-11T08:26:13.603Z,1.22
2019-05-11T08:27:18.672Z,1.12
2019-05-11T08:28:22.775Z,0.90
2019-05-11T08:29:27.833Z,1.10
2019-05-11T08:30:32.286Z,0.65
2019-05-11T08:31:38.259Z,1.10
2019-05-11T08:32:41.460Z,0.80
2019-05-11T08:33:45.167Z,1.07
2019-05-11T08:34:49.237Z,0.68
2019-05-11T08:35:52.823Z,0.60
2019-05-11T08:36:58.456Z,0.60
2019-05-11T08:38:02.035Z,0.80
2019-05-11T08:39:07.997Z,0.60
2019-05-11T08:40:12.367Z,0.47
2019-05-11T08:41:18.361Z,0.70
2019-05-11T08:42:21.619Z,1.10
2019-05-11T08:43:25.433Z,0.70
2019-05-11T08:44:29.430Z,1.77
2019-05-11T08:45:33.271Z,1.00
2019-05-11T08:46:38.545Z,0.72
2019-05-11T08:47:42.540Z,0.85
2019-05-11T08:48:47.875Z,0.65
2019-05-11T08:49:51.978Z,0.68
2019-05-11T08:50:58.023Z,1.12
2019-05-11T08:52:01.091Z,0.60
2019-05-11T08:53:05.129Z,0.65
2019-05-11T08:54:09.193Z,0.60
2019-05-11T08:55:13.507Z,1.00
2019-05-11T08:56:18.936Z,0.98
2019-05-11T08:57:22.745Z,0.70
2019-05-11T08:58:27.769Z,0.90
2019-05-11T08:59:31.528Z,0.62
2019-05-11T09:00:35.460Z,0.50
2019-05-11T09:01:39.533Z,0.70
2019-05-11T09:02:46.853Z,0.68
2019-05-11T09:03:49.509Z,0.42
2019-05-11T09:04:53.373Z,0.60
2019-05-11T09:05:57.906Z,2.40
2019-05-11T09:07:01.833Z,0.53
2019-05-11T09:08:08.085Z,1.22
2019-05-11T09:09:13.245Z,0.62
2019-05-11T09:10:18.536Z,0.60
2019-05-11T09:11:22.299Z,0.72
2019-05-11T09:12:25.964Z,0.50
2019-05-11T09:13:29.814Z,0.50
2019-05-11T09:14:33.488Z,0.65
2019-05-11T09:15:40.651Z,0.50
2019-05-11T09:16:42.667Z,0.40
2019-05-11T09:17:48.587Z,0.40
2019-05-11T09:18:51.905Z,0.60
2019-05-11T09:19:58.136Z,0.60
2019-05-11T09:21:01.502Z,0.42
2019-05-11T09:22:05.322Z,0.70
2019-05-11T09:23:08.959Z,0.57
2019-05-11T09:24:12.889Z,0.57
2019-05-11T09:25:18.317Z,0.50
2019-05-11T09:26:22.375Z,0.70
2019-05-11T09:27:26.007Z,0.60
2019-05-11T09:28:32.271Z,0.50
2019-05-11T09:29:35.834Z,0.50
2019-05-11T09:30:39.758Z,1.22
2019-05-11T09:31:43.397Z,1.67
2019-05-11T09:32:47.891Z,0.42
2019-05-11T09:33:51.658Z,0.70
2019-05-11T09:34:57.807Z,0.50
2019-05-11T09:36:00.834Z,0.40
2019-05-11T09:37:04.797Z,0.33
2019-05-11T09:38:08.417Z,0.60
2019-05-11T09:39:12.272Z,0.50
2019-05-11T09:40:19.030Z,0.60
2019-05-11T09:41:22.920Z,0.50
2019-05-11T09:42:28.542Z,0.98
2019-05-11T09:43:32.167Z,0.42
2019-05-11T09:44:37.840Z,0.40
2019-05-11T09:45:48.181Z,0.40
2019-05-11T09:46:47.812Z,0.55
2019-05-11T09:47:51.825Z,0.70
2019-05-11T09:48:55.473Z,0.50
2019-05-11T09:49:59.332Z,0.60
2019-05-11T09:51:03.036Z,0.37
2019-05-11T09:52:07.867Z,0.60
2019-05-11T09:53:11.696Z,0.50
2019-05-11T09:54:18.097Z,0.65
2019-05-11T09:55:21.257Z,0.47
2019-05-11T09:56:25.188Z,0.53
2019-05-11T09:57:28.977Z,0.62
2019-05-11T09:58:32.830Z,0.93
2019-05-11T09:59:38.568Z,0.55
2019-05-11T10:00:42.524Z,0.70
2019-05-11T10:01:48.330Z,0.60
2019-05-11T10:02:51.731Z,0.60
2019-05-11T10:03:55.425Z,0.60
2019-05-11T10:04:59.238Z,0.70
2019-05-11T10:06:03.260Z,0.60
2019-05-11T10:07:09.002Z,0.40
2019-05-11T10:08:12.495Z,0.50
2019-05-11T10:09:18.476Z,0.50
2019-05-11T10:10:23.381Z,0.60
2019-05-11T10:11:28.253Z,0.60
2019-05-11T10:12:32.129Z,0.82
2019-05-11T10:13:38.273Z,0.40
2019-05-11T10:14:43.168Z,0.40
2019-05-11T10:16:00.979Z,0.42
2019-05-11T10:16:53.734Z,0.50
2019-05-11T10:18:00.281Z,0.50
2019-05-11T10:19:05.296Z,0.50
2019-05-11T10:20:09.742Z,0.42
2019-05-11T10:21:13.713Z,0.47
2019-05-11T10:22:18.526Z,0.50
2019-05-11T10:23:22.469Z,0.35
2019-05-11T10:24:28.291Z,0.33
2019-05-11T10:25:32.153Z,0.50
2019-05-11T10:26:38.461Z,0.55
2019-05-11T10:27:43.659Z,0.30
2019-05-11T10:28:48.263Z,0.78
2019-05-11T10:29:54.321Z,0.40
2019-05-11T10:31:00.201Z,0.40
2019-05-11T10:32:03.832Z,0.40
2019-05-11T10:33:09.397Z,0.60
2019-05-11T10:34:14.113Z,0.40
2019-05-11T10:35:18.831Z,0.30
2019-05-11T10:36:22.627Z,0.30
2019-05-11T10:37:28.243Z,0.40
2019-05-11T10:38:31.813Z,0.50
2019-05-11T10:39:35.654Z,0.70
2019-05-11T10:40:39.416Z,0.50
2019-05-11T10:41:43.639Z,0.35
2019-05-11T10:42:48.328Z,0.40
2019-05-11T10:43:52.408Z,0.40
2019-05-11T10:44:58.163Z,0.53
2019-05-11T10:46:15.976Z,0.60
2019-05-11T10:47:08.186Z,0.40
2019-05-11T10:48:12.332Z,0.40
2019-05-11T10:49:18.300Z,0.50
2019-05-11T10:50:21.564Z,0.33
2019-05-11T10:51:25.197Z,1.37
2019-05-11T10:52:29.426Z,0.98
2019-05-11T10:53:33.425Z,0.85
2019-05-11T10:54:39.711Z,0.57
2019-05-11T10:55:42.802Z,1.55
2019-05-11T10:56:48.147Z,0.95
2019-05-11T10:57:51.961Z,0.47
2019-05-11T10:58:55.801Z,0.70
2019-05-11T10:59:59.512Z,0.55
2019-05-11T11:01:03.430Z,0.50
2019-05-11T11:02:08.042Z,0.57
2019-05-11T11:03:12.104Z,0.50
2019-05-11T11:04:18.173Z,0.57
2019-05-11T11:05:21.358Z,0.42
2019-05-11T11:06:28.140Z,0.45
2019-05-11T11:07:33.192Z,0.33
2019-05-11T11:08:38.313Z,0.40
2019-05-11T11:09:42.785Z,0.40
2019-05-11T11:10:48.347Z,0.40
2019-05-11T11:11:51.980Z,0.50
2019-05-11T11:12:57.761Z,0.30
2019-05-11T11:14:03.051Z,0.42
2019-05-11T11:15:08.390Z,0.50
2019-05-11T11:16:15.304Z,0.60
2019-05-11T11:17:19.284Z,0.70
2019-05-11T11:18:24.398Z,0.50
2019-05-11T11:19:29.454Z,0.40
2019-05-11T11:20:33.262Z,0.50
2019-05-11T11:21:38.385Z,0.80
2019-05-11T11:22:44.238Z,0.50
2019-05-11T11:23:48.314Z,0.55
2019-05-11T11:24:52.227Z,0.53
2019-05-11T11:25:55.885Z,0.60
2019-05-11T11:26:59.715Z,0.70
2019-05-11T11:28:03.450Z,0.30
2019-05-11T11:29:08.524Z,0.50
2019-05-11T11:30:14.764Z,0.70
2019-05-11T11:31:19.002Z,0.40
2019-05-11T11:32:22.769Z,0.30
2019-05-11T11:33:27.684Z,0.20
2019-05-11T11:34:31.582Z,0.40
2019-05-11T11:35:35.490Z,0.50
2019-05-11T11:36:39.182Z,0.30
2019-05-11T11:37:43.687Z,0.30
2019-05-11T11:38:48.061Z,0.40
2019-05-11T11:39:52.050Z,0.50
2019-05-11T11:40:55.723Z,0.30
2019-05-11T11:41:59.567Z,0.68
2019-05-11T11:43:04.718Z,0.30
2019-05-11T11:44:08.631Z,0.30
2019-05-11T11:45:12.641Z,0.42
2019-05-11T11:46:18.680Z,0.50
2019-05-11T11:47:21.941Z,0.47
2019-05-11T11:48:27.846Z,0.37
2019-05-11T11:49:31.281Z,0.45
2019-05-11T11:50:37.557Z,0.50
2019-05-11T11:51:40.534Z,0.25
2019-05-11T11:52:45.131Z,0.30
2019-05-11T11:53:49.043Z,0.40
2019-05-11T11:54:52.883Z,0.30
2019-05-11T11:55:58.622Z,0.20
2019-05-11T11:57:02.197Z,0.50
2019-05-11T11:58:08.079Z,0.35
2019-05-11T11:59:11.483Z,0.40
2019-05-11T12:00:15.343Z,0.57
2019-05-11T12:01:22.117Z,0.30
2019-05-11T12:02:28.452Z,0.45
2019-05-11T12:03:37.905Z,0.30
2019-05-11T12:04:42.835Z,0.45
2019-05-11T12:05:47.767Z,0.30
2019-05-11T12:06:51.637Z,0.37
2019-05-11T12:07:57.829Z,0.50
2019-05-11T12:09:01.009Z,0.45
2019-05-11T12:10:07.884Z,0.40
2019-05-11T12:11:11.527Z,0.40
2019-05-11T12:12:15.506Z,0.47
2019-05-11T12:13:19.141Z,0.47
2019-05-11T12:14:22.980Z,0.40
2019-05-11T12:15:28.312Z,0.40
2019-05-11T12:16:32.334Z,0.30
2019-05-11T12:17:37.686Z,0.42
2019-05-11T12:18:41.715Z,0.40
2019-05-11T12:19:47.300Z,0.45
2019-05-11T12:20:51.006Z,0.85
2019-05-11T12:21:58.216Z,0.82
2019-05-11T12:23:02.216Z,1.90
2019-05-11T12:24:08.131Z,0.80
2019-05-11T12:25:11.971Z,0.50
2019-05-11T12:26:17.617Z,0.50
2019-05-11T12:27:21.152Z,0.60
2019-05-11T12:28:24.828Z,0.50
2019-05-11T12:29:30.845Z,0.85
2019-05-11T12:30:34.547Z,0.68
2019-05-11T12:31:38.355Z,0.62
2019-05-11T12:32:43.628Z,0.40
2019-05-11T12:33:48.610Z,0.40
2019-05-11T12:34:54.629Z,0.30
2019-05-11T12:35:58.768Z,0.37
2019-05-11T12:37:02.463Z,3.37
2019-05-11T12:38:08.563Z,1.00
2019-05-11T12:39:13.704Z,0.60
2019-05-11T12:40:18.220Z,1.75
2019-05-11T12:41:21.877Z,1.20
2019-05-11T12:42:28.275Z,3.00
2019-05-11T12:43:31.383Z,0.70
2019-05-11T12:44:35.186Z,0.55
2019-05-11T12:45:38.840Z,0.70
2019-05-11T12:46:42.649Z,0.70
2019-05-11T12:47:48.033Z,0.50
2019-05-11T12:48:52.007Z,0.93
2019-05-11T12:49:55.671Z,0.30
2019-05-11T12:50:59.546Z,0.30
2019-05-11T12:52:03.247Z,0.42
2019-05-11T12:53:08.013Z,0.50
2019-05-11T12:54:11.849Z,0.47
2019-05-11T12:55:17.910Z,0.30
2019-05-11T12:56:22.231Z,0.47
2019-05-11T12:57:28.178Z,0.60
2019-05-11T12:58:31.519Z,0.47
2019-05-11T12:59:35.329Z,0.50
2019-05-11T13:00:39.340Z,0.50
2019-05-11T13:01:43.647Z,0.68
2019-05-11T13:02:48.391Z,0.50
2019-05-11T13:03:52.578Z,0.40
2019-05-11T13:04:58.501Z,0.40
2019-05-11T13:06:02.072Z,0.50
2019-05-11T13:07:05.723Z,0.40
2019-05-11T13:08:09.549Z,0.30
2019-05-11T13:09:13.175Z,0.60
2019-05-11T13:10:17.842Z,0.50
2019-05-11T13:11:21.681Z,0.42
2019-05-11T13:12:27.794Z,0.75
2019-05-11T13:13:30.867Z,0.60
2019-05-11T13:14:34.680Z,0.50
2019-05-11T13:15:38.814Z,0.70
2019-05-11T13:16:43.199Z,0.40
2019-05-11T13:17:48.968Z,0.60
2019-05-11T13:18:52.887Z,0.35
2019-05-11T13:19:58.641Z,0.40
2019-05-11T13:21:02.110Z,0.57
2019-05-11T13:22:07.768Z,0.30
2019-05-11T13:23:11.788Z,0.40
2019-05-11T13:24:15.541Z,0.40
2019-05-11T13:25:19.660Z,0.30
2019-05-11T13:26:23.303Z,0.30
2019-05-11T13:27:28.353Z,0.30
2019-05-11T13:28:33.325Z,0.42
2019-05-11T13:29:37.938Z,0.50
2019-05-11T13:30:41.670Z,0.60
2019-05-11T13:31:45.470Z,0.80
2019-05-11T13:32:49.342Z,2.42
2019-05-11T13:33:53.330Z,1.17
2019-05-11T13:35:22.600Z,1.75
2019-05-11T13:36:28.641Z,1.47
2019-05-11T13:37:32.452Z,1.05
2019-05-11T13:38:38.631Z,1.52
2019-05-11T13:39:41.762Z,0.75
2019-05-11T13:40:45.569Z,0.75
2019-05-11T13:41:49.243Z,0.50
2019-05-11T13:42:53.318Z,0.85
2019-05-11T13:43:58.681Z,0.72
2019-05-11T13:45:02.511Z,0.90
2019-05-11T13:46:08.582Z,0.55
2019-05-11T13:47:12.005Z,0.50
2019-05-11T13:48:17.526Z,0.42
2019-05-11T13:49:21.223Z,0.47
2019-05-11T13:50:26.362Z,0.33
2019-05-11T13:51:30.182Z,0.60
2019-05-11T13:52:35.087Z,0.40
2019-05-11T13:53:39.038Z,0.55
2019-05-11T13:54:42.677Z,0.40
2019-05-11T13:55:48.133Z,0.60
2019-05-11T13:56:52.027Z,0.90
2019-05-11T13:57:57.839Z,0.62
2019-05-11T13:59:10.434Z,0.78
2019-05-11T14:00:14.101Z,1.10
2019-05-11T14:01:18.496Z,0.65
2019-05-11T14:02:22.574Z,0.50
2019-05-11T14:03:27.675Z,0.40
2019-05-11T14:04:31.725Z,0.50
2019-05-11T14:05:37.892Z,0.30
2019-05-11T14:06:41.786Z,0.30
2019-05-11T14:07:45.423Z,0.50
2019-05-11T14:08:53.560Z,0.40
2019-05-11T14:09:58.878Z,1.40
2019-05-11T14:11:02.814Z,0.30
2019-05-11T14:12:07.735Z,0.28
2019-05-11T14:13:12.389Z,0.50
2019-05-11T14:14:18.190Z,0.60
2019-05-11T14:15:23.099Z,2.12
2019-05-11T14:16:27.587Z,2.70
2019-05-11T14:17:32.020Z,1.65
2019-05-11T14:18:35.798Z,1.80
2019-05-11T14:19:39.829Z,1.72
2019-05-11T14:20:43.609Z,0.85
2019-05-11T14:21:49.044Z,0.60
2019-05-11T14:22:52.759Z,0.80
2019-05-11T14:23:58.809Z,0.57
2019-05-11T14:25:02.358Z,0.50
2019-05-11T14:26:08.389Z,0.30
2019-05-11T14:27:12.269Z,0.60
2019-05-11T14:28:17.999Z,0.40
2019-05-11T14:29:21.445Z,0.40
2019-05-11T14:30:25.438Z,0.33
2019-05-11T14:31:29.082Z,0.40
2019-05-11T14:32:39.985Z,0.98
2019-05-11T14:33:43.638Z,1.00
2019-05-11T14:34:48.479Z,0.47
2019-05-11T14:35:54.102Z,0.40
2019-05-11T14:36:58.410Z,0.42
2019-05-11T14:38:02.116Z,0.50
2019-05-11T14:39:08.474Z,0.47
2019-05-11T14:40:12.447Z,0.60
2019-05-11T14:41:18.169Z,0.50
2019-05-11T14:42:22.450Z,0.55
2019-05-11T14:43:27.950Z,0.68
2019-05-11T14:44:31.586Z,0.50
2019-05-11T14:45:35.466Z,0.33
2019-05-11T14:46:39.466Z,0.40
2019-05-11T14:47:43.341Z,0.45
2019-05-11T14:48:49.182Z,0.45
2019-05-11T14:49:53.010Z,0.50
2019-05-11T14:50:59.088Z,0.50